sensor_id;sensor_type;location;lat;lon;timestamp;temperature;humidity
71237;DHT22;58984;51.960;5.582;2024-01-15T00:00:39;3.60;92.70
71237;DHT22;58984;51.960;5.582;2024-01-15T00:03:04;3.70;92.70
71237;DHT22;58984;51.960;5.582;2024-01-15T00:05:30;3.60;92.70
71237;DHT22;58984;51.960;5.582;2024-01-15T00:07:56;3.60;93.00
71237;DHT22;58984;51.960;5.582;2024-01-15T00:10:21;3.60;92.70
71237;DHT22;58984;51.960;5.582;2024-01-15T00:12:47;3.60;92.60
71237;DHT22;58984;51.960;5.582;2024-01-15T00:15:12;3.60;92.60
71237;DHT22;58984;51.960;5.582;2024-01-15T00:17:39;3.50;92.60
71237;DHT22;58984;51.960;5.582;2024-01-15T00:20:05;3.60;92.60
71237;DHT22;58984;51.960;5.582;2024-01-15T00:22:30;3.50;92.50
71237;DHT22;58984;51.960;5.582;2024-01-15T00:24:57;3.60;92.60
71237;DHT22;58984;51.960;5.582;2024-01-15T00:27:22;3.50;92.60
71237;DHT22;58984;51.960;5.582;2024-01-15T00:29:49;3.50;92.50
71237;DHT22;58984;51.960;5.582;2024-01-15T00:32:16;3.50;92.30
71237;DHT22;58984;51.960;5.582;2024-01-15T00:34:42;3.50;92.60
71237;DHT22;58984;51.960;5.582;2024-01-15T00:37:07;3.50;92.50
71237;DHT22;58984;51.960;5.582;2024-01-15T00:39:33;3.50;92.50
71237;DHT22;58984;51.960;5.582;2024-01-15T00:41:58;3.40;92.50
71237;DHT22;58984;51.960;5.582;2024-01-15T00:44:24;3.40;92.50
71237;DHT22;58984;51.960;5.582;2024-01-15T00:46:50;3.40;92.20
71237;DHT22;58984;51.960;5.582;2024-01-15T00:49:16;3.50;92.50
71237;DHT22;58984;51.960;5.582;2024-01-15T00:51:41;3.40;92.40
71237;DHT22;58984;51.960;5.582;2024-01-15T00:54:07;3.40;92.50
71237;DHT22;58984;51.960;5.582;2024-01-15T00:56:33;3.40;92.50
71237;DHT22;58984;51.960;5.582;2024-01-15T00:59:00;3.30;92.50
71237;DHT22;58984;51.960;5.582;2024-01-15T01:01:26;3.40;92.50
71237;DHT22;58984;51.960;5.582;2024-01-15T01:03:51;3.40;92.50
71237;DHT22;58984;51.960;5.582;2024-01-15T01:06:17;3.30;92.50
71237;DHT22;58984;51.960;5.582;2024-01-15T01:08:42;3.30;92.50
71237;DHT22;58984;51.960;5.582;2024-01-15T01:11:13;3.30;92.50
71237;DHT22;58984;51.960;5.582;2024-01-15T01:13:38;3.30;92.50
71237;DHT22;58984;51.960;5.582;2024-01-15T01:16:04;3.30;92.50
71237;DHT22;58984;51.960;5.582;2024-01-15T01:18:30;3.30;92.50
71237;DHT22;58984;51.960;5.582;2024-01-15T01:20:56;3.30;92.50
71237;DHT22;58984;51.960;5.582;2024-01-15T01:23:21;3.30;92.50
71237;DHT22;58984;51.960;5.582;2024-01-15T01:25:47;3.30;92.50
71237;DHT22;58984;51.960;5.582;2024-01-15T01:28:12;3.30;92.50
71237;DHT22;58984;51.960;5.582;2024-01-15T01:30:38;3.20;92.40
71237;DHT22;58984;51.960;5.582;2024-01-15T01:33:04;3.30;92.50
71237;DHT22;58984;51.960;5.582;2024-01-15T01:35:29;3.20;92.70
71237;DHT22;58984;51.960;5.582;2024-01-15T01:37:55;3.20;92.50
71237;DHT22;58984;51.960;5.582;2024-01-15T01:40:20;3.20;92.50
71237;DHT22;58984;51.960;5.582;2024-01-15T01:42:46;3.20;92.50
71237;DHT22;58984;51.960;5.582;2024-01-15T01:45:12;3.20;92.40
71237;DHT22;58984;51.960;5.582;2024-01-15T01:47:38;3.20;92.50
71237;DHT22;58984;51.960;5.582;2024-01-15T01:50:04;3.20;92.50
71237;DHT22;58984;51.960;5.582;2024-01-15T01:52:31;3.20;92.50
71237;DHT22;58984;51.960;5.582;2024-01-15T01:54:57;3.20;92.50
71237;DHT22;58984;51.960;5.582;2024-01-15T01:57:24;3.10;92.50
71237;DHT22;58984;51.960;5.582;2024-01-15T01:59:50;3.20;92.50
71237;DHT22;58984;51.960;5.582;2024-01-15T02:02:16;3.10;92.50
71237;DHT22;58984;51.960;5.582;2024-01-15T02:04:42;3.20;92.40
71237;DHT22;58984;51.960;5.582;2024-01-15T02:07:08;3.10;92.40
71237;DHT22;58984;51.960;5.582;2024-01-15T02:09:35;3.10;92.40
71237;DHT22;58984;51.960;5.582;2024-01-15T02:12:01;3.20;92.40
71237;DHT22;58984;51.960;5.582;2024-01-15T02:14:27;3.10;92.40
71237;DHT22;58984;51.960;5.582;2024-01-15T02:16:52;3.10;92.30
71237;DHT22;58984;51.960;5.582;2024-01-15T02:19:18;3.10;92.30
71237;DHT22;58984;51.960;5.582;2024-01-15T02:21:44;3.10;92.30
71237;DHT22;58984;51.960;5.582;2024-01-15T02:24:10;3.10;92.40
71237;DHT22;58984;51.960;5.582;2024-01-15T02:26:36;3.10;92.70
71237;DHT22;58984;51.960;5.582;2024-01-15T02:29:04;3.10;92.40
71237;DHT22;58984;51.960;5.582;2024-01-15T02:31:30;3.10;92.30
71237;DHT22;58984;51.960;5.582;2024-01-15T02:33:55;3.10;92.60
71237;DHT22;58984;51.960;5.582;2024-01-15T02:36:21;3.10;92.00
71237;DHT22;58984;51.960;5.582;2024-01-15T02:38:47;3.10;92.30
71237;DHT22;58984;51.960;5.582;2024-01-15T02:41:12;3.00;92.30
71237;DHT22;58984;51.960;5.582;2024-01-15T02:43:40;3.00;92.20
71237;DHT22;58984;51.960;5.582;2024-01-15T02:46:06;3.00;92.30
71237;DHT22;58984;51.960;5.582;2024-01-15T02:48:31;3.00;92.30
71237;DHT22;58984;51.960;5.582;2024-01-15T02:50:58;3.00;92.30
71237;DHT22;58984;51.960;5.582;2024-01-15T02:53:23;3.00;92.30
71237;DHT22;58984;51.960;5.582;2024-01-15T02:55:49;3.00;92.30
71237;DHT22;58984;51.960;5.582;2024-01-15T02:58:14;3.00;92.30
71237;DHT22;58984;51.960;5.582;2024-01-15T03:00:40;3.00;92.20
71237;DHT22;58984;51.960;5.582;2024-01-15T03:03:06;3.00;92.30
71237;DHT22;58984;51.960;5.582;2024-01-15T03:05:31;3.00;92.20
71237;DHT22;58984;51.960;5.582;2024-01-15T03:07:57;3.00;92.30
71237;DHT22;58984;51.960;5.582;2024-01-15T03:10:22;3.00;92.20
71237;DHT22;58984;51.960;5.582;2024-01-15T03:12:48;3.00;92.60
71237;DHT22;58984;51.960;5.582;2024-01-15T03:15:13;3.00;92.30
71237;DHT22;58984;51.960;5.582;2024-01-15T03:17:41;3.00;92.30
71237;DHT22;58984;51.960;5.582;2024-01-15T03:20:08;3.00;92.30
71237;DHT22;58984;51.960;5.582;2024-01-15T03:22:33;3.00;92.20
71237;DHT22;58984;51.960;5.582;2024-01-15T03:24:59;3.00;92.40
71237;DHT22;58984;51.960;5.582;2024-01-15T03:27:25;3.00;92.30
71237;DHT22;58984;51.960;5.582;2024-01-15T03:29:51;3.00;92.40
71237;DHT22;58984;51.960;5.582;2024-01-15T03:32:17;3.00;92.30
71237;DHT22;58984;51.960;5.582;2024-01-15T03:34:43;3.00;92.30
71237;DHT22;58984;51.960;5.582;2024-01-15T03:37:08;3.00;92.70
71237;DHT22;58984;51.960;5.582;2024-01-15T03:39:34;3.00;92.30
71237;DHT22;58984;51.960;5.582;2024-01-15T03:42:00;3.00;92.20
71237;DHT22;58984;51.960;5.582;2024-01-15T03:44:25;3.00;92.30
71237;DHT22;58984;51.960;5.582;2024-01-15T03:46:51;3.00;92.30
71237;DHT22;58984;51.960;5.582;2024-01-15T03:49:16;3.00;92.20
71237;DHT22;58984;51.960;5.582;2024-01-15T03:51:42;2.90;92.30
71237;DHT22;58984;51.960;5.582;2024-01-15T03:54:07;3.00;92.30
71237;DHT22;58984;51.960;5.582;2024-01-15T03:56:33;2.90;92.20
71237;DHT22;58984;51.960;5.582;2024-01-15T03:58:58;3.00;92.20
71237;DHT22;58984;51.960;5.582;2024-01-15T04:01:24;3.00;92.10
71237;DHT22;58984;51.960;5.582;2024-01-15T04:03:50;3.00;92.30
71237;DHT22;58984;51.960;5.582;2024-01-15T04:06:15;3.00;91.90
71237;DHT22;58984;51.960;5.582;2024-01-15T04:08:41;2.90;92.20
71237;DHT22;58984;51.960;5.582;2024-01-15T04:11:06;2.90;92.10
71237;DHT22;58984;51.960;5.582;2024-01-15T04:13:32;3.00;92.30
71237;DHT22;58984;51.960;5.582;2024-01-15T04:15:58;3.00;92.10
71237;DHT22;58984;51.960;5.582;2024-01-15T04:18:25;2.90;92.20
71237;DHT22;58984;51.960;5.582;2024-01-15T04:20:51;3.00;92.20
71237;DHT22;58984;51.960;5.582;2024-01-15T04:23:17;3.00;92.50
71237;DHT22;58984;51.960;5.582;2024-01-15T04:25:42;2.90;92.20
71237;DHT22;58984;51.960;5.582;2024-01-15T04:28:09;2.90;92.20
71237;DHT22;58984;51.960;5.582;2024-01-15T04:30:34;3.00;92.30
71237;DHT22;58984;51.960;5.582;2024-01-15T04:33:00;2.90;92.20
71237;DHT22;58984;51.960;5.582;2024-01-15T04:35:25;2.90;92.00
71237;DHT22;58984;51.960;5.582;2024-01-15T04:37:51;2.90;92.30
71237;DHT22;58984;51.960;5.582;2024-01-15T04:40:17;3.00;92.20
71237;DHT22;58984;51.960;5.582;2024-01-15T04:42:42;2.90;92.30
71237;DHT22;58984;51.960;5.582;2024-01-15T04:45:08;3.00;92.30
71237;DHT22;58984;51.960;5.582;2024-01-15T04:47:34;2.90;92.30
71237;DHT22;58984;51.960;5.582;2024-01-15T04:50:02;2.90;92.20
71237;DHT22;58984;51.960;5.582;2024-01-15T04:52:28;2.90;92.30
71237;DHT22;58984;51.960;5.582;2024-01-15T04:54:53;2.90;92.20
71237;DHT22;58984;51.960;5.582;2024-01-15T04:57:19;2.90;92.30
71237;DHT22;58984;51.960;5.582;2024-01-15T04:59:45;3.00;92.30
71237;DHT22;58984;51.960;5.582;2024-01-15T05:02:10;2.90;92.30
71237;DHT22;58984;51.960;5.582;2024-01-15T05:04:36;2.90;92.30
71237;DHT22;58984;51.960;5.582;2024-01-15T05:07:01;2.90;92.30
71237;DHT22;58984;51.960;5.582;2024-01-15T05:09:27;2.90;92.20
71237;DHT22;58984;51.960;5.582;2024-01-15T05:11:54;2.90;92.30
71237;DHT22;58984;51.960;5.582;2024-01-15T05:14:19;2.90;92.30
71237;DHT22;58984;51.960;5.582;2024-01-15T05:16:49;2.90;92.30
71237;DHT22;58984;51.960;5.582;2024-01-15T05:19:14;2.90;92.30
71237;DHT22;58984;51.960;5.582;2024-01-15T05:21:40;2.90;92.20
71237;DHT22;58984;51.960;5.582;2024-01-15T05:24:06;2.90;92.30
71237;DHT22;58984;51.960;5.582;2024-01-15T05:26:32;2.90;92.30
71237;DHT22;58984;51.960;5.582;2024-01-15T05:28:58;2.90;92.30
71237;DHT22;58984;51.960;5.582;2024-01-15T05:31:24;2.90;92.30
71237;DHT22;58984;51.960;5.582;2024-01-15T05:33:49;2.90;92.30
71237;DHT22;58984;51.960;5.582;2024-01-15T05:36:15;2.90;92.30
71237;DHT22;58984;51.960;5.582;2024-01-15T05:38:40;2.90;92.30
71237;DHT22;58984;51.960;5.582;2024-01-15T05:41:06;2.90;92.30
71237;DHT22;58984;51.960;5.582;2024-01-15T05:43:31;2.90;92.40
71237;DHT22;58984;51.960;5.582;2024-01-15T05:45:57;2.90;92.40
71237;DHT22;58984;51.960;5.582;2024-01-15T05:48:23;2.90;92.30
71237;DHT22;58984;51.960;5.582;2024-01-15T05:50:49;2.90;92.30
71237;DHT22;58984;51.960;5.582;2024-01-15T05:53:14;2.90;92.30
71237;DHT22;58984;51.960;5.582;2024-01-15T05:55:40;2.90;92.40
71237;DHT22;58984;51.960;5.582;2024-01-15T05:58:05;2.90;92.40
71237;DHT22;58984;51.960;5.582;2024-01-15T06:00:31;2.90;92.40
71237;DHT22;58984;51.960;5.582;2024-01-15T06:02:58;2.90;92.40
71237;DHT22;58984;51.960;5.582;2024-01-15T06:05:24;2.90;92.30
71237;DHT22;58984;51.960;5.582;2024-01-15T06:07:50;2.90;92.40
71237;DHT22;58984;51.960;5.582;2024-01-15T06:10:16;2.90;92.30
71237;DHT22;58984;51.960;5.582;2024-01-15T06:12:43;2.90;92.40
71237;DHT22;58984;51.960;5.582;2024-01-15T06:15:08;2.90;92.40
71237;DHT22;58984;51.960;5.582;2024-01-15T06:17:34;2.90;92.50
71237;DHT22;58984;51.960;5.582;2024-01-15T06:20:00;2.90;92.50
71237;DHT22;58984;51.960;5.582;2024-01-15T06:22:25;2.90;92.50
71237;DHT22;58984;51.960;5.582;2024-01-15T06:24:51;2.90;92.40
71237;DHT22;58984;51.960;5.582;2024-01-15T06:27:16;2.90;92.40
71237;DHT22;58984;51.960;5.582;2024-01-15T06:29:45;3.00;92.50
71237;DHT22;58984;51.960;5.582;2024-01-15T06:32:12;2.90;92.50
71237;DHT22;58984;51.960;5.582;2024-01-15T06:34:38;3.00;92.80
71237;DHT22;58984;51.960;5.582;2024-01-15T06:37:04;2.90;92.80
71237;DHT22;58984;51.960;5.582;2024-01-15T06:39:30;2.90;92.60
71237;DHT22;58984;51.960;5.582;2024-01-15T06:41:55;3.00;92.60
71237;DHT22;58984;51.960;5.582;2024-01-15T06:44:21;3.00;92.50
71237;DHT22;58984;51.960;5.582;2024-01-15T06:46:47;3.00;92.50
71237;DHT22;58984;51.960;5.582;2024-01-15T06:49:13;3.00;92.80
71237;DHT22;58984;51.960;5.582;2024-01-15T06:51:38;3.00;92.50
71237;DHT22;58984;51.960;5.582;2024-01-15T06:54:04;3.00;92.80
71237;DHT22;58984;51.960;5.582;2024-01-15T06:56:31;3.00;92.50
71237;DHT22;58984;51.960;5.582;2024-01-15T06:58:57;2.90;92.40
71237;DHT22;58984;51.960;5.582;2024-01-15T07:01:22;2.90;92.30
71237;DHT22;58984;51.960;5.582;2024-01-15T07:03:48;2.90;92.40
71237;DHT22;58984;51.960;5.582;2024-01-15T07:06:14;2.90;92.50
71237;DHT22;58984;51.960;5.582;2024-01-15T07:08:40;2.90;92.80
71237;DHT22;58984;51.960;5.582;2024-01-15T07:11:06;2.90;92.40
71237;DHT22;58984;51.960;5.582;2024-01-15T07:13:32;2.90;92.40
71237;DHT22;58984;51.960;5.582;2024-01-15T07:15:58;3.00;92.60
71237;DHT22;58984;51.960;5.582;2024-01-15T07:18:24;2.90;92.40
71237;DHT22;58984;51.960;5.582;2024-01-15T07:20:50;2.90;92.40
71237;DHT22;58984;51.960;5.582;2024-01-15T07:23:15;2.90;92.30
71237;DHT22;58984;51.960;5.582;2024-01-15T07:25:41;2.90;92.40
71237;DHT22;58984;51.960;5.582;2024-01-15T07:28:07;2.90;92.40
71237;DHT22;58984;51.960;5.582;2024-01-15T07:30:33;2.90;92.30
71237;DHT22;58984;51.960;5.582;2024-01-15T07:32:59;2.90;92.50
71237;DHT22;58984;51.960;5.582;2024-01-15T07:35:24;2.90;92.50
71237;DHT22;58984;51.960;5.582;2024-01-15T07:37:50;2.90;92.50
71237;DHT22;58984;51.960;5.582;2024-01-15T07:40:16;3.00;92.40
71237;DHT22;58984;51.960;5.582;2024-01-15T07:42:42;2.90;92.40
71237;DHT22;58984;51.960;5.582;2024-01-15T07:45:09;2.90;92.40
71237;DHT22;58984;51.960;5.582;2024-01-15T07:47:34;2.90;92.40
71237;DHT22;58984;51.960;5.582;2024-01-15T07:50:00;2.90;92.40
71237;DHT22;58984;51.960;5.582;2024-01-15T07:52:26;2.90;92.30
71237;DHT22;58984;51.960;5.582;2024-01-15T07:54:51;2.90;92.40
71237;DHT22;58984;51.960;5.582;2024-01-15T07:57:17;2.90;92.40
71237;DHT22;58984;51.960;5.582;2024-01-15T07:59:42;2.90;92.30
71237;DHT22;58984;51.960;5.582;2024-01-15T08:02:08;2.90;92.40
71237;DHT22;58984;51.960;5.582;2024-01-15T08:04:34;2.90;92.40
71237;DHT22;58984;51.960;5.582;2024-01-15T08:06:59;2.90;92.50
71237;DHT22;58984;51.960;5.582;2024-01-15T08:09:25;2.90;92.30
71237;DHT22;58984;51.960;5.582;2024-01-15T08:11:50;2.90;92.40
71237;DHT22;58984;51.960;5.582;2024-01-15T08:14:17;2.90;92.40
71237;DHT22;58984;51.960;5.582;2024-01-15T08:16:42;2.90;92.80
71237;DHT22;58984;51.960;5.582;2024-01-15T08:19:09;2.90;92.50
71237;DHT22;58984;51.960;5.582;2024-01-15T08:21:34;2.90;92.40
71237;DHT22;58984;51.960;5.582;2024-01-15T08:24:01;2.90;92.40
71237;DHT22;58984;51.960;5.582;2024-01-15T08:26:30;2.90;92.50
71237;DHT22;58984;51.960;5.582;2024-01-15T08:28:56;2.90;92.50
71237;DHT22;58984;51.960;5.582;2024-01-15T08:31:22;2.90;92.40
71237;DHT22;58984;51.960;5.582;2024-01-15T08:33:48;2.90;92.40
71237;DHT22;58984;51.960;5.582;2024-01-15T08:36:13;2.90;92.40
71237;DHT22;58984;51.960;5.582;2024-01-15T08:38:39;2.90;92.50
71237;DHT22;58984;51.960;5.582;2024-01-15T08:41:05;2.90;92.40
71237;DHT22;58984;51.960;5.582;2024-01-15T08:43:30;2.90;92.40
71237;DHT22;58984;51.960;5.582;2024-01-15T08:45:59;2.90;92.50
71237;DHT22;58984;51.960;5.582;2024-01-15T08:48:24;2.90;92.50
71237;DHT22;58984;51.960;5.582;2024-01-15T08:50:53;2.90;92.50
71237;DHT22;58984;51.960;5.582;2024-01-15T08:53:19;2.90;92.50
71237;DHT22;58984;51.960;5.582;2024-01-15T08:55:44;2.90;92.40
71237;DHT22;58984;51.960;5.582;2024-01-15T08:58:10;2.90;92.60
71237;DHT22;58984;51.960;5.582;2024-01-15T09:00:36;2.90;92.60
71237;DHT22;58984;51.960;5.582;2024-01-15T09:03:02;2.90;92.50
71237;DHT22;58984;51.960;5.582;2024-01-15T09:05:27;2.90;92.50
71237;DHT22;58984;51.960;5.582;2024-01-15T09:07:54;2.90;92.50
71237;DHT22;58984;51.960;5.582;2024-01-15T09:10:20;2.80;92.50
71237;DHT22;58984;51.960;5.582;2024-01-15T09:12:46;2.90;92.60
71237;DHT22;58984;51.960;5.582;2024-01-15T09:15:11;2.90;92.60
71237;DHT22;58984;51.960;5.582;2024-01-15T09:17:37;2.90;92.60
71237;DHT22;58984;51.960;5.582;2024-01-15T09:20:03;2.90;92.50
71237;DHT22;58984;51.960;5.582;2024-01-15T09:22:31;2.90;92.90
71237;DHT22;58984;51.960;5.582;2024-01-15T09:24:56;2.90;92.50
71237;DHT22;58984;51.960;5.582;2024-01-15T09:27:22;2.90;92.50
71237;DHT22;58984;51.960;5.582;2024-01-15T09:29:48;2.90;92.60
71237;DHT22;58984;51.960;5.582;2024-01-15T09:32:13;2.90;92.50
71237;DHT22;58984;51.960;5.582;2024-01-15T09:34:39;2.90;92.70
71237;DHT22;58984;51.960;5.582;2024-01-15T09:37:05;2.90;92.70
71237;DHT22;58984;51.960;5.582;2024-01-15T09:39:31;2.90;92.60
71237;DHT22;58984;51.960;5.582;2024-01-15T09:41:57;2.90;92.60
71237;DHT22;58984;51.960;5.582;2024-01-15T09:44:23;3.00;92.60
71237;DHT22;58984;51.960;5.582;2024-01-15T09:46:49;2.90;92.60
71237;DHT22;58984;51.960;5.582;2024-01-15T09:49:18;3.00;92.80
71237;DHT22;58984;51.960;5.582;2024-01-15T09:51:44;3.00;92.70
71237;DHT22;58984;51.960;5.582;2024-01-15T09:54:10;3.00;92.70
71237;DHT22;58984;51.960;5.582;2024-01-15T09:56:39;2.90;92.60
71237;DHT22;58984;51.960;5.582;2024-01-15T09:59:05;3.00;92.70
71237;DHT22;58984;51.960;5.582;2024-01-15T10:01:32;3.00;92.70
71237;DHT22;58984;51.960;5.582;2024-01-15T10:03:59;3.00;92.70
71237;DHT22;58984;51.960;5.582;2024-01-15T10:06:26;3.00;92.80
71237;DHT22;58984;51.960;5.582;2024-01-15T10:08:54;3.00;92.80
71237;DHT22;58984;51.960;5.582;2024-01-15T10:11:22;3.10;92.90
71237;DHT22;58984;51.960;5.582;2024-01-15T10:13:51;3.10;92.80
71237;DHT22;58984;51.960;5.582;2024-01-15T10:16:19;3.10;92.70
71237;DHT22;58984;51.960;5.582;2024-01-15T10:18:44;3.00;92.70
71237;DHT22;58984;51.960;5.582;2024-01-15T10:21:10;3.10;92.70
71237;DHT22;58984;51.960;5.582;2024-01-15T10:23:36;3.00;92.70
71237;DHT22;58984;51.960;5.582;2024-01-15T10:26:02;3.10;92.70
71237;DHT22;58984;51.960;5.582;2024-01-15T10:28:29;3.00;92.70
71237;DHT22;58984;51.960;5.582;2024-01-15T10:30:57;3.00;92.70
71237;DHT22;58984;51.960;5.582;2024-01-15T10:33:25;3.00;92.80
71237;DHT22;58984;51.960;5.582;2024-01-15T10:35:54;3.00;92.80
71237;DHT22;58984;51.960;5.582;2024-01-15T10:38:21;3.10;92.90
71237;DHT22;58984;51.960;5.582;2024-01-15T10:40:56;3.10;92.90
71237;DHT22;58984;51.960;5.582;2024-01-15T10:43:23;3.20;92.90
71237;DHT22;58984;51.960;5.582;2024-01-15T10:45:50;3.30;93.00
71237;DHT22;58984;51.960;5.582;2024-01-15T10:48:17;3.40;92.90
71237;DHT22;58984;51.960;5.582;2024-01-15T10:50:44;3.40;92.80
71237;DHT22;58984;51.960;5.582;2024-01-15T10:53:12;3.50;92.90
71237;DHT22;58984;51.960;5.582;2024-01-15T10:55:38;3.50;93.00
71237;DHT22;58984;51.960;5.582;2024-01-15T10:58:07;3.60;93.00
71237;DHT22;58984;51.960;5.582;2024-01-15T11:00:37;3.60;92.90
71237;DHT22;58984;51.960;5.582;2024-01-15T11:03:05;3.60;93.00
71237;DHT22;58984;51.960;5.582;2024-01-15T11:05:46;3.70;93.00
71237;DHT22;58984;51.960;5.582;2024-01-15T11:08:13;3.70;92.80
71237;DHT22;58984;51.960;5.582;2024-01-15T11:10:45;3.80;92.90
71237;DHT22;58984;51.960;5.582;2024-01-15T11:18:27;3.80;92.90
71237;DHT22;58984;51.960;5.582;2024-01-15T11:23:57;3.90;93.00
71237;DHT22;58984;51.960;5.582;2024-01-15T11:26:37;3.90;93.00
71237;DHT22;58984;51.960;5.582;2024-01-15T11:32:04;3.90;92.90
71237;DHT22;58984;51.960;5.582;2024-01-15T11:34:53;3.90;92.90
71237;DHT22;58984;51.960;5.582;2024-01-15T11:37:20;3.90;92.90
71237;DHT22;58984;51.960;5.582;2024-01-15T11:39:46;3.90;92.90
71237;DHT22;58984;51.960;5.582;2024-01-15T11:42:13;3.90;93.00
71237;DHT22;58984;51.960;5.582;2024-01-15T11:44:40;3.90;93.00
71237;DHT22;58984;51.960;5.582;2024-01-15T11:47:06;3.90;93.00
71237;DHT22;58984;51.960;5.582;2024-01-15T11:52:21;3.90;93.00
71237;DHT22;58984;51.960;5.582;2024-01-15T12:00:07;4.00;92.40
71237;DHT22;58984;51.960;5.582;2024-01-15T12:02:34;4.00;92.50
71237;DHT22;58984;51.960;5.582;2024-01-15T12:04:59;4.00;92.50
71237;DHT22;58984;51.960;5.582;2024-01-15T12:07:25;4.10;92.50
71237;DHT22;58984;51.960;5.582;2024-01-15T12:09:51;4.10;92.60
71237;DHT22;58984;51.960;5.582;2024-01-15T12:13:05;4.10;92.60
71237;DHT22;58984;51.960;5.582;2024-01-15T12:15:11;4.10;92.60
71237;DHT22;58984;51.960;5.582;2024-01-15T12:17:37;4.00;92.60
71237;DHT22;58984;51.960;5.582;2024-01-15T12:20:06;4.00;92.70
71237;DHT22;58984;51.960;5.582;2024-01-15T12:22:32;4.00;92.80
71237;DHT22;58984;51.960;5.582;2024-01-15T12:24:58;4.00;92.80
71237;DHT22;58984;51.960;5.582;2024-01-15T12:27:24;4.00;92.90
71237;DHT22;58984;51.960;5.582;2024-01-15T12:29:50;4.00;92.90
71237;DHT22;58984;51.960;5.582;2024-01-15T12:32:15;3.90;92.90
71237;DHT22;58984;51.960;5.582;2024-01-15T12:34:41;3.90;92.80
71237;DHT22;58984;51.960;5.582;2024-01-15T12:37:07;3.90;93.00
71237;DHT22;58984;51.960;5.582;2024-01-15T12:39:34;3.90;93.00
71237;DHT22;58984;51.960;5.582;2024-01-15T12:42:01;3.90;93.10
71237;DHT22;58984;51.960;5.582;2024-01-15T12:44:28;3.90;93.10
71237;DHT22;58984;51.960;5.582;2024-01-15T12:46:53;3.90;93.10
71237;DHT22;58984;51.960;5.582;2024-01-15T12:49:20;3.90;93.20
71237;DHT22;58984;51.960;5.582;2024-01-15T12:52:08;4.00;93.20
71237;DHT22;58984;51.960;5.582;2024-01-15T12:54:34;4.00;93.20
71237;DHT22;58984;51.960;5.582;2024-01-15T12:56:59;4.00;93.20
71237;DHT22;58984;51.960;5.582;2024-01-15T12:59:25;4.00;93.10
71237;DHT22;58984;51.960;5.582;2024-01-15T13:01:50;4.00;93.10
71237;DHT22;58984;51.960;5.582;2024-01-15T13:04:23;4.10;93.20
71237;DHT22;58984;51.960;5.582;2024-01-15T13:06:49;4.10;93.20
71237;DHT22;58984;51.960;5.582;2024-01-15T13:09:15;4.10;93.20
71237;DHT22;58984;51.960;5.582;2024-01-15T13:11:44;4.00;93.10
71237;DHT22;58984;51.960;5.582;2024-01-15T13:14:12;4.00;93.00
71237;DHT22;58984;51.960;5.582;2024-01-15T13:16:41;4.00;92.90
71237;DHT22;58984;51.960;5.582;2024-01-15T13:19:13;4.00;92.80
71237;DHT22;58984;51.960;5.582;2024-01-15T13:21:44;4.00;92.90
71237;DHT22;58984;51.960;5.582;2024-01-15T13:24:09;4.00;92.80
71237;DHT22;58984;51.960;5.582;2024-01-15T13:26:36;4.00;92.80
71237;DHT22;58984;51.960;5.582;2024-01-15T13:29:05;4.00;92.80
71237;DHT22;58984;51.960;5.582;2024-01-15T13:31:31;4.00;92.80
71237;DHT22;58984;51.960;5.582;2024-01-15T13:33:57;4.00;92.80
71237;DHT22;58984;51.960;5.582;2024-01-15T13:36:23;3.90;92.70
71237;DHT22;58984;51.960;5.582;2024-01-15T13:38:50;3.90;92.70
71237;DHT22;58984;51.960;5.582;2024-01-15T13:41:17;3.90;92.80
71237;DHT22;58984;51.960;5.582;2024-01-15T13:43:48;3.90;92.70
71237;DHT22;58984;51.960;5.582;2024-01-15T13:46:14;3.90;92.80
71237;DHT22;58984;51.960;5.582;2024-01-15T13:48:40;3.90;92.80
71237;DHT22;58984;51.960;5.582;2024-01-15T13:51:05;3.90;92.90
71237;DHT22;58984;51.960;5.582;2024-01-15T13:53:31;4.00;92.90
71237;DHT22;58984;51.960;5.582;2024-01-15T13:55:57;4.10;92.90
71237;DHT22;58984;51.960;5.582;2024-01-15T13:58:22;4.20;92.80
71237;DHT22;58984;51.960;5.582;2024-01-15T14:00:50;4.30;92.50
71237;DHT22;58984;51.960;5.582;2024-01-15T14:03:16;4.40;92.50
71237;DHT22;58984;51.960;5.582;2024-01-15T14:05:42;4.40;92.50
71237;DHT22;58984;51.960;5.582;2024-01-15T14:08:07;4.40;92.30
71237;DHT22;58984;51.960;5.582;2024-01-15T14:10:33;4.50;92.40
71237;DHT22;58984;51.960;5.582;2024-01-15T14:12:59;4.40;92.70
71237;DHT22;58984;51.960;5.582;2024-01-15T14:15:24;4.40;92.50
71237;DHT22;58984;51.960;5.582;2024-01-15T14:17:50;4.40;92.50
71237;DHT22;58984;51.960;5.582;2024-01-15T14:20:15;4.40;92.40
71237;DHT22;58984;51.960;5.582;2024-01-15T14:22:42;4.30;92.50
71237;DHT22;58984;51.960;5.582;2024-01-15T14:25:08;4.30;92.90
71237;DHT22;58984;51.960;5.582;2024-01-15T14:27:34;4.30;92.50
71237;DHT22;58984;51.960;5.582;2024-01-15T14:29:59;4.30;92.50
71237;DHT22;58984;51.960;5.582;2024-01-15T14:32:25;4.20;92.50
71237;DHT22;58984;51.960;5.582;2024-01-15T14:34:50;4.20;92.50
71237;DHT22;58984;51.960;5.582;2024-01-15T14:37:16;4.20;92.60
71237;DHT22;58984;51.960;5.582;2024-01-15T14:39:41;4.30;92.70
71237;DHT22;58984;51.960;5.582;2024-01-15T14:42:08;4.30;92.70
71237;DHT22;58984;51.960;5.582;2024-01-15T14:44:34;4.30;92.60
71237;DHT22;58984;51.960;5.582;2024-01-15T14:47:00;4.30;92.60
71237;DHT22;58984;51.960;5.582;2024-01-15T14:49:26;4.30;92.50
71237;DHT22;58984;51.960;5.582;2024-01-15T14:51:51;4.40;92.60
71237;DHT22;58984;51.960;5.582;2024-01-15T14:54:17;4.30;92.50
71237;DHT22;58984;51.960;5.582;2024-01-15T14:56:42;4.30;92.40
71237;DHT22;58984;51.960;5.582;2024-01-15T14:59:08;4.30;92.30
71237;DHT22;58984;51.960;5.582;2024-01-15T15:01:34;4.30;92.50
71237;DHT22;58984;51.960;5.582;2024-01-15T15:04:00;4.20;92.30
71237;DHT22;58984;51.960;5.582;2024-01-15T15:06:25;4.20;92.50
71237;DHT22;58984;51.960;5.582;2024-01-15T15:08:53;4.20;92.90
71237;DHT22;58984;51.960;5.582;2024-01-15T15:11:26;4.20;92.50
71237;DHT22;58984;51.960;5.582;2024-01-15T15:13:52;4.20;92.50
71237;DHT22;58984;51.960;5.582;2024-01-15T15:16:18;4.10;92.30
71237;DHT22;58984;51.960;5.582;2024-01-15T15:18:43;4.10;92.40
71237;DHT22;58984;51.960;5.582;2024-01-15T15:21:10;4.10;92.50
71237;DHT22;58984;51.960;5.582;2024-01-15T15:23:36;4.00;92.50
71237;DHT22;58984;51.960;5.582;2024-01-15T15:26:04;4.00;92.40
71237;DHT22;58984;51.960;5.582;2024-01-15T15:28:30;4.00;92.40
71237;DHT22;58984;51.960;5.582;2024-01-15T15:30:55;4.00;92.20
71237;DHT22;58984;51.960;5.582;2024-01-15T15:33:22;4.00;92.20
71237;DHT22;58984;51.960;5.582;2024-01-15T15:35:48;4.00;92.30
71237;DHT22;58984;51.960;5.582;2024-01-15T15:38:17;3.90;92.30
71237;DHT22;58984;51.960;5.582;2024-01-15T15:40:42;3.90;92.30
71237;DHT22;58984;51.960;5.582;2024-01-15T15:43:08;3.90;92.30
71237;DHT22;58984;51.960;5.582;2024-01-15T15:45:34;3.90;92.20
71237;DHT22;58984;51.960;5.582;2024-01-15T15:47:59;3.90;92.10
71237;DHT22;58984;51.960;5.582;2024-01-15T15:50:25;3.80;92.10
71237;DHT22;58984;51.960;5.582;2024-01-15T15:52:51;3.90;92.50
71237;DHT22;58984;51.960;5.582;2024-01-15T15:55:16;3.80;92.10
71237;DHT22;58984;51.960;5.582;2024-01-15T15:57:42;3.80;92.00